sensor_id;sensor_type;location;lat;lon;timestamp;pressure;altitude;pressure_sealevel;temperature;humidity
67840;BME280;54636;51.684;5.142;2023-05-19T00:01:05;102710.72;;;8.37;97.20
67840;BME280;54636;51.684;5.142;2023-05-19T00:03:35;102710.47;;;8.28;97.66
67840;BME280;54636;51.684;5.142;2023-05-19T00:06:05;102713.94;;;8.29;99.11
67840;BME280;54636;51.684;5.142;2023-05-19T00:08:33;102717.50;;;8.25;98.67
67840;BME280;54636;51.684;5.142;2023-05-19T00:11:00;102713.38;;;8.17;99.12
67840;BME280;54636;51.684;5.142;2023-05-19T00:13:26;102710.69;;;8.17;99.93
67840;BME280;54636;51.684;5.142;2023-05-19T00:15:52;102708.03;;;8.14;100.00
67840;BME280;54636;51.684;5.142;2023-05-19T00:18:17;102698.47;;;8.09;100.00
67840;BME280;54636;51.684;5.142;2023-05-19T00:20:43;102700.81;;;8.07;100.00
67840;BME280;54636;51.684;5.142;2023-05-19T00:23:09;102686.59;;;8.03;100.00
67840;BME280;54636;51.684;5.142;2023-05-19T00:25:35;102689.31;;;8.03;100.00
67840;BME280;54636;51.684;5.142;2023-05-19T00:28:00;102681.88;;;8.07;100.00
67840;BME280;54636;51.684;5.142;2023-05-19T00:30:27;102686.94;;;8.05;100.00
67840;BME280;54636;51.684;5.142;2023-05-19T00:32:53;102679.25;;;8.04;100.00
67840;BME280;54636;51.684;5.142;2023-05-19T00:35:19;102673.91;;;8.00;100.00
67840;BME280;54636;51.684;5.142;2023-05-19T00:37:44;102672.78;;;7.98;100.00
67840;BME280;54636;51.684;5.142;2023-05-19T00:40:09;102685.56;;;7.97;100.00
67840;BME280;54636;51.684;5.142;2023-05-19T00:42:35;102674.47;;;7.91;100.00
67840;BME280;54636;51.684;5.142;2023-05-19T00:45:01;102668.75;;;7.86;100.00
67840;BME280;54636;51.684;5.142;2023-05-19T00:47:26;102676.81;;;7.89;100.00
67840;BME280;54636;51.684;5.142;2023-05-19T00:49:51;102682.91;;;7.93;100.00
67840;BME280;54636;51.684;5.142;2023-05-19T00:52:17;102683.81;;;7.87;100.00
67840;BME280;54636;51.684;5.142;2023-05-19T00:54:43;102679.31;;;7.80;100.00
67840;BME280;54636;51.684;5.142;2023-05-19T00:57:09;102675.00;;;7.83;100.00
67840;BME280;54636;51.684;5.142;2023-05-19T00:59:35;102682.78;;;7.81;100.00
67840;BME280;54636;51.684;5.142;2023-05-19T01:02:01;102674.41;;;7.75;100.00
67840;BME280;54636;51.684;5.142;2023-05-19T01:04:27;102678.69;;;7.73;100.00
67840;BME280;54636;51.684;5.142;2023-05-19T01:06:55;102685.69;;;7.70;100.00
67840;BME280;54636;51.684;5.142;2023-05-19T01:09:21;102687.34;;;7.64;100.00
67840;BME280;54636;51.684;5.142;2023-05-19T01:11:50;102683.59;;;7.58;100.00
67840;BME280;54636;51.684;5.142;2023-05-19T01:14:16;102685.53;;;7.57;100.00
67840;BME280;54636;51.684;5.142;2023-05-19T01:16:46;102691.06;;;7.50;100.00
67840;BME280;54636;51.684;5.142;2023-05-19T01:25:07;102681.25;;;7.37;100.00
67840;BME280;54636;51.684;5.142;2023-05-19T01:33:00;102665.34;;;7.19;100.00
67840;BME280;54636;51.684;5.142;2023-05-19T01:35:26;102677.50;;;7.31;100.00
67840;BME280;54636;51.684;5.142;2023-05-19T01:37:59;102671.38;;;7.26;100.00
67840;BME280;54636;51.684;5.142;2023-05-19T01:40:26;102657.22;;;7.19;100.00
67840;BME280;54636;51.684;5.142;2023-05-19T01:42:54;102669.97;;;7.18;100.00
67840;BME280;54636;51.684;5.142;2023-05-19T01:45:21;102670.75;;;7.19;100.00
67840;BME280;54636;51.684;5.142;2023-05-19T01:47:51;102665.84;;;7.14;100.00
67840;BME280;54636;51.684;5.142;2023-05-19T01:50:17;102669.28;;;7.14;100.00
67840;BME280;54636;51.684;5.142;2023-05-19T01:52:42;102654.44;;;7.03;100.00
67840;BME280;54636;51.684;5.142;2023-05-19T01:55:08;102668.66;;;7.07;100.00
67840;BME280;54636;51.684;5.142;2023-05-19T02:00:51;102668.00;;;6.99;100.00
67840;BME280;54636;51.684;5.142;2023-05-19T02:09:01;102656.28;;;6.82;100.00
67840;BME280;54636;51.684;5.142;2023-05-19T02:12:02;102665.91;;;6.83;100.00
67840;BME280;54636;51.684;5.142;2023-05-19T02:17:03;102664.94;;;6.70;100.00
67840;BME280;54636;51.684;5.142;2023-05-19T02:19:33;102671.88;;;6.71;100.00
67840;BME280;54636;51.684;5.142;2023-05-19T02:21:59;102667.66;;;6.70;100.00
67840;BME280;54636;51.684;5.142;2023-05-19T02:24:24;102673.47;;;6.69;100.00
67840;BME280;54636;51.684;5.142;2023-05-19T02:26:51;102663.41;;;6.69;100.00
67840;BME280;54636;51.684;5.142;2023-05-19T02:29:20;102656.50;;;6.68;100.00
67840;BME280;54636;51.684;5.142;2023-05-19T02:31:45;102648.09;;;6.63;100.00
67840;BME280;54636;51.684;5.142;2023-05-19T02:34:11;102660.06;;;6.61;100.00
67840;BME280;54636;51.684;5.142;2023-05-19T02:36:39;102637.16;;;6.46;100.00
67840;BME280;54636;51.684;5.142;2023-05-19T02:39:11;102650.88;;;6.55;100.00
67840;BME280;54636;51.684;5.142;2023-05-19T02:41:37;102641.72;;;6.49;100.00
67840;BME280;54636;51.684;5.142;2023-05-19T02:44:03;102643.22;;;6.50;100.00
67840;BME280;54636;51.684;5.142;2023-05-19T02:46:29;102637.44;;;6.52;100.00
67840;BME280;54636;51.684;5.142;2023-05-19T02:48:54;102635.56;;;6.49;100.00
67840;BME280;54636;51.684;5.142;2023-05-19T02:51:20;102647.91;;;6.50;100.00
67840;BME280;54636;51.684;5.142;2023-05-19T02:53:45;102640.22;;;6.48;100.00
67840;BME280;54636;51.684;5.142;2023-05-19T02:56:10;102644.06;;;6.47;100.00
67840;BME280;54636;51.684;5.142;2023-05-19T02:58:36;102638.31;;;6.45;100.00
67840;BME280;54636;51.684;5.142;2023-05-19T03:01:02;102636.06;;;6.40;100.00
67840;BME280;54636;51.684;5.142;2023-05-19T03:03:27;102639.53;;;6.41;100.00
67840;BME280;54636;51.684;5.142;2023-05-19T03:05:53;102621.91;;;6.33;100.00
67840;BME280;54636;51.684;5.142;2023-05-19T03:08:19;102630.31;;;6.38;100.00
67840;BME280;54636;51.684;5.142;2023-05-19T03:10:45;102621.91;;;6.33;100.00
67840;BME280;54636;51.684;5.142;2023-05-19T03:13:11;102622.69;;;6.33;100.00
67840;BME280;54636;51.684;5.142;2023-05-19T03:15:36;102626.84;;;6.38;100.00
67840;BME280;54636;51.684;5.142;2023-05-19T03:18:01;102619.53;;;6.38;100.00
67840;BME280;54636;51.684;5.142;2023-05-19T03:20:27;102634.59;;;6.36;100.00
67840;BME280;54636;51.684;5.142;2023-05-19T03:22:54;102636.88;;;6.37;100.00
67840;BME280;54636;51.684;5.142;2023-05-19T03:25:20;102629.97;;;6.36;100.00
67840;BME280;54636;51.684;5.142;2023-05-19T03:27:45;102636.13;;;6.37;100.00
67840;BME280;54636;51.684;5.142;2023-05-19T03:30:11;102624.59;;;6.33;100.00
67840;BME280;54636;51.684;5.142;2023-05-19T03:32:36;102633.41;;;6.37;100.00
67840;BME280;54636;51.684;5.142;2023-05-19T03:35:03;102629.19;;;6.36;100.00
67840;BME280;54636;51.684;5.142;2023-05-19T03:37:29;102636.16;;;6.33;100.00
67840;BME280;54636;51.684;5.142;2023-05-19T03:39:56;102624.66;;;6.29;100.00
67840;BME280;54636;51.684;5.142;2023-05-19T03:42:22;102633.16;;;6.27;100.00
67840;BME280;54636;51.684;5.142;2023-05-19T03:44:47;102631.31;;;6.21;100.00
67840;BME280;54636;51.684;5.142;2023-05-19T03:47:12;102630.47;;;6.27;100.00
67840;BME280;54636;51.684;5.142;2023-05-19T03:49:38;102637.03;;;6.26;100.00
67840;BME280;54636;51.684;5.142;2023-05-19T03:52:03;102627.81;;;6.24;100.00
67840;BME280;54636;51.684;5.142;2023-05-19T03:54:29;102615.56;;;6.16;100.00
67840;BME280;54636;51.684;5.142;2023-05-19T03:56:54;102625.47;;;6.26;100.00
67840;BME280;54636;51.684;5.142;2023-05-19T03:59:19;102632.75;;;6.29;100.00
67840;BME280;54636;51.684;5.142;2023-05-19T04:01:45;102632.34;;;6.31;100.00
67840;BME280;54636;51.684;5.142;2023-05-19T04:04:10;102633.88;;;6.32;100.00
67840;BME280;54636;51.684;5.142;2023-05-19T04:06:36;102625.41;;;6.30;100.00
67840;BME280;54636;51.684;5.142;2023-05-19T04:09:02;102631.59;;;6.30;100.00
67840;BME280;54636;51.684;5.142;2023-05-19T04:11:29;102625.00;;;6.31;100.00
67840;BME280;54636;51.684;5.142;2023-05-19T04:13:54;102625.81;;;6.28;100.00
67840;BME280;54636;51.684;5.142;2023-05-19T04:16:20;102636.53;;;6.35;100.00
67840;BME280;54636;51.684;5.142;2023-05-19T04:18:45;102634.25;;;6.34;100.00
67840;BME280;54636;51.684;5.142;2023-05-19T04:21:11;102646.50;;;6.38;100.00
67840;BME280;54636;51.684;5.142;2023-05-19T04:23:36;102620.84;;;6.26;100.00
67840;BME280;54636;51.684;5.142;2023-05-19T04:26:01;102644.13;;;6.44;100.00
67840;BME280;54636;51.684;5.142;2023-05-19T04:28:28;102643.31;;;6.47;100.00
67840;BME280;54636;51.684;5.142;2023-05-19T04:30:54;102642.81;;;6.52;100.00
67840;BME280;54636;51.684;5.142;2023-05-19T04:33:20;102647.94;;;6.73;100.00
67840;BME280;54636;51.684;5.142;2023-05-19T04:35:45;102637.69;;;6.88;100.00
67840;BME280;54636;51.684;5.142;2023-05-19T04:38:11;102637.00;;;7.07;100.00
67840;BME280;54636;51.684;5.142;2023-05-19T04:40:37;102639.13;;;7.16;100.00
67840;BME280;54636;51.684;5.142;2023-05-19T04:43:04;102646.81;;;7.17;100.00
67840;BME280;54636;51.684;5.142;2023-05-19T04:45:31;102639.22;;;7.12;100.00
67840;BME280;54636;51.684;5.142;2023-05-19T04:47:57;102649.94;;;7.16;100.00
67840;BME280;54636;51.684;5.142;2023-05-19T04:50:23;102649.81;;;7.23;100.00
67840;BME280;54636;51.684;5.142;2023-05-19T04:52:49;102656.00;;;7.23;100.00
67840;BME280;54636;51.684;5.142;2023-05-19T04:55:14;102642.19;;;7.18;100.00
67840;BME280;54636;51.684;5.142;2023-05-19T04:57:40;102653.22;;;7.27;100.00
67840;BME280;54636;51.684;5.142;2023-05-19T05:00:06;102658.16;;;7.32;100.00
67840;BME280;54636;51.684;5.142;2023-05-19T05:02:37;102659.28;;;7.35;100.00
67840;BME280;54636;51.684;5.142;2023-05-19T05:05:03;102656.94;;;7.37;100.00
67840;BME280;54636;51.684;5.142;2023-05-19T05:07:29;102651.41;;;7.44;100.00
67840;BME280;54636;51.684;5.142;2023-05-19T05:09:55;102654.41;;;7.49;100.00
67840;BME280;54636;51.684;5.142;2023-05-19T05:12:20;102653.78;;;7.62;100.00
67840;BME280;54636;51.684;5.142;2023-05-19T05:14:46;102655.81;;;7.77;100.00
67840;BME280;54636;51.684;5.142;2023-05-19T05:17:12;102653.72;;;7.85;100.00
67840;BME280;54636;51.684;5.142;2023-05-19T05:19:38;102661.75;;;7.88;100.00
67840;BME280;54636;51.684;5.142;2023-05-19T05:22:04;102661.34;;;7.90;100.00
67840;BME280;54636;51.684;5.142;2023-05-19T05:24:30;102665.94;;;7.93;100.00
67840;BME280;54636;51.684;5.142;2023-05-19T05:26:57;102669.66;;;7.99;100.00
67840;BME280;54636;51.684;5.142;2023-05-19T05:29:23;102654.63;;;7.98;100.00
67840;BME280;54636;51.684;5.142;2023-05-19T05:31:48;102663.22;;;8.13;100.00
67840;BME280;54636;51.684;5.142;2023-05-19T05:34:14;102653.09;;;8.17;100.00
67840;BME280;54636;51.684;5.142;2023-05-19T05:36:39;102662.56;;;8.25;100.00
67840;BME280;54636;51.684;5.142;2023-05-19T05:39:05;102673.91;;;8.40;100.00
67840;BME280;54636;51.684;5.142;2023-05-19T05:41:30;102661.72;;;8.48;100.00
67840;BME280;54636;51.684;5.142;2023-05-19T05:44:00;102666.56;;;8.56;100.00
67840;BME280;54636;51.684;5.142;2023-05-19T05:46:25;102670.72;;;8.61;100.00
67840;BME280;54636;51.684;5.142;2023-05-19T05:48:51;102670.72;;;8.61;100.00
67840;BME280;54636;51.684;5.142;2023-05-19T05:51:20;102672.84;;;8.70;100.00
67840;BME280;54636;51.684;5.142;2023-05-19T05:53:51;102659.63;;;8.72;100.00
67840;BME280;54636;51.684;5.142;2023-05-19T05:56:16;102664.47;;;8.80;100.00
67840;BME280;54636;51.684;5.142;2023-05-19T05:58:42;102671.25;;;8.88;100.00
67840;BME280;54636;51.684;5.142;2023-05-19T06:01:08;102672.53;;;9.00;100.00
67840;BME280;54636;51.684;5.142;2023-05-19T06:03:40;102668.53;;;9.05;100.00
67840;BME280;54636;51.684;5.142;2023-05-19T06:06:06;102667.28;;;9.09;100.00
67840;BME280;54636;51.684;5.142;2023-05-19T06:08:32;102665.22;;;9.13;100.00
67840;BME280;54636;51.684;5.142;2023-05-19T06:10:57;102663.59;;;9.16;100.00
67840;BME280;54636;51.684;5.142;2023-05-19T06:13:23;102670.88;;;9.19;100.00
67840;BME280;54636;51.684;5.142;2023-05-19T06:15:50;102668.84;;;9.23;100.00
67840;BME280;54636;51.684;5.142;2023-05-19T06:18:16;102673.75;;;9.28;100.00
67840;BME280;54636;51.684;5.142;2023-05-19T06:20:41;102671.38;;;9.30;100.00
67840;BME280;54636;51.684;5.142;2023-05-19T06:23:07;102675.94;;;9.33;100.00
67840;BME280;54636;51.684;5.142;2023-05-19T06:25:32;102673.59;;;9.35;100.00
67840;BME280;54636;51.684;5.142;2023-05-19T06:27:58;102679.91;;;9.45;100.00
67840;BME280;54636;51.684;5.142;2023-05-19T06:30:23;102669.84;;;9.45;100.00
67840;BME280;54636;51.684;5.142;2023-05-19T06:32:48;102666.28;;;9.48;100.00
67840;BME280;54636;51.684;5.142;2023-05-19T06:35:14;102678.38;;;9.60;100.00
67840;BME280;54636;51.684;5.142;2023-05-19T06:37:39;102673.53;;;9.68;100.00
67840;BME280;54636;51.684;5.142;2023-05-19T06:40:05;102681.47;;;9.75;100.00
67840;BME280;54636;51.684;5.142;2023-05-19T06:42:31;102668.97;;;9.77;100.00
67840;BME280;54636;51.684;5.142;2023-05-19T06:44:56;102669.88;;;9.87;100.00
67840;BME280;54636;51.684;5.142;2023-05-19T06:47:22;102674.56;;;9.99;100.00
67840;BME280;54636;51.684;5.142;2023-05-19T06:49:48;102671.47;;;10.13;100.00
67840;BME280;54636;51.684;5.142;2023-05-19T06:52:23;102665.31;;;10.89;100.00
67840;BME280;54636;51.684;5.142;2023-05-19T06:54:49;102682.28;;;12.37;94.61
67840;BME280;54636;51.684;5.142;2023-05-19T06:57:14;102679.25;;;13.61;83.70
67840;BME280;54636;51.684;5.142;2023-05-19T06:59:40;102681.59;;;14.13;79.04
67840;BME280;54636;51.684;5.142;2023-05-19T07:02:07;102681.75;;;14.52;77.65
67840;BME280;54636;51.684;5.142;2023-05-19T07:04:33;102682.34;;;14.89;75.91
67840;BME280;54636;51.684;5.142;2023-05-19T07:06:59;102675.34;;;15.12;72.70
67840;BME280;54636;51.684;5.142;2023-05-19T07:09:25;102685.41;;;15.06;71.96
67840;BME280;54636;51.684;5.142;2023-05-19T07:11:50;102684.47;;;15.09;71.87
67840;BME280;54636;51.684;5.142;2023-05-19T07:14:16;102680.28;;;15.23;71.12
67840;BME280;54636;51.684;5.142;2023-05-19T07:16:41;102679.94;;;15.06;69.35
67840;BME280;54636;51.684;5.142;2023-05-19T07:19:07;102678.66;;;14.68;70.96
67840;BME280;54636;51.684;5.142;2023-05-19T07:21:32;102677.66;;;14.05;74.66
67840;BME280;54636;51.684;5.142;2023-05-19T07:23:58;102686.47;;;13.91;75.32
67840;BME280;54636;51.684;5.142;2023-05-19T07:26:23;102677.13;;;13.46;75.58
67840;BME280;54636;51.684;5.142;2023-05-19T07:28:49;102670.59;;;13.16;78.29
67840;BME280;54636;51.684;5.142;2023-05-19T07:31:16;102669.03;;;13.06;80.02
67840;BME280;54636;51.684;5.142;2023-05-19T07:33:41;102671.44;;;13.04;82.40
67840;BME280;54636;51.684;5.142;2023-05-19T07:36:07;102675.13;;;13.19;80.51
67840;BME280;54636;51.684;5.142;2023-05-19T07:38:33;102673.56;;;13.09;80.99
67840;BME280;54636;51.684;5.142;2023-05-19T07:41:00;102671.75;;;12.97;83.44
67840;BME280;54636;51.684;5.142;2023-05-19T07:43:25;102682.06;;;13.02;82.20
67840;BME280;54636;51.684;5.142;2023-05-19T07:45:51;102679.78;;;12.92;83.08
67840;BME280;54636;51.684;5.142;2023-05-19T07:48:18;102677.50;;;12.90;83.00
67840;BME280;54636;51.684;5.142;2023-05-19T07:50:46;102677.22;;;13.06;82.40
67840;BME280;54636;51.684;5.142;2023-05-19T07:53:12;102677.25;;;13.25;80.90
67840;BME280;54636;51.684;5.142;2023-05-19T07:55:38;102677.09;;;13.19;81.48
67840;BME280;54636;51.684;5.142;2023-05-19T07:58:03;102671.38;;;13.35;81.39
67840;BME280;54636;51.684;5.142;2023-05-19T08:00:29;102672.88;;;13.64;80.70
67840;BME280;54636;51.684;5.142;2023-05-19T08:02:55;102656.28;;;13.95;80.88
67840;BME280;54636;51.684;5.142;2023-05-19T08:05:21;102657.63;;;14.08;76.39
67840;BME280;54636;51.684;5.142;2023-05-19T08:07:47;102662.63;;;14.10;76.52
67840;BME280;54636;51.684;5.142;2023-05-19T08:10:12;102659.47;;;13.93;77.30
67840;BME280;54636;51.684;5.142;2023-05-19T08:12:38;102659.88;;;14.10;78.43
67840;BME280;54636;51.684;5.142;2023-05-19T08:15:05;102654.47;;;14.43;76.45
67840;BME280;54636;51.684;5.142;2023-05-19T08:17:31;102640.53;;;14.65;74.65
67840;BME280;54636;51.684;5.142;2023-05-19T08:19:57;102648.38;;;14.96;73.71
67840;BME280;54636;51.684;5.142;2023-05-19T08:22:22;102647.91;;;15.21;71.87
67840;BME280;54636;51.684;5.142;2023-05-19T08:24:48;102643.44;;;15.09;70.35
67840;BME280;54636;51.684;5.142;2023-05-19T08:27:16;102648.91;;;15.09;72.01
67840;BME280;54636;51.684;5.142;2023-05-19T08:29:43;102651.69;;;15.24;70.63
67840;BME280;54636;51.684;5.142;2023-05-19T08:32:08;102644.34;;;15.30;69.36
67840;BME280;54636;51.684;5.142;2023-05-19T08:34:34;102648.44;;;15.49;69.32
67840;BME280;54636;51.684;5.142;2023-05-19T08:36:59;102648.56;;;15.84;68.04
67840;BME280;54636;51.684;5.142;2023-05-19T08:39:24;102637.78;;;16.10;65.96
67840;BME280;54636;51.684;5.142;2023-05-19T08:41:53;102638.50;;;16.25;63.25
67840;BME280;54636;51.684;5.142;2023-05-19T08:44:21;102635.06;;;16.30;66.17
67840;BME280;54636;51.684;5.142;2023-05-19T08:46:46;102634.56;;;16.46;63.59
67840;BME280;54636;51.684;5.142;2023-05-19T08:49:13;102632.81;;;16.64;63.80
67840;BME280;54636;51.684;5.142;2023-05-19T08:54:24;102619.06;;;16.78;59.25
67840;BME280;54636;51.684;5.142;2023-05-19T08:56:53;102629.00;;;16.76;61.08
67840;BME280;54636;51.684;5.142;2023-05-19T08:59:19;102626.69;;;16.69;57.30
67840;BME280;54636;51.684;5.142;2023-05-19T09:01:46;102622.91;;;16.52;59.61
67840;BME280;54636;51.684;5.142;2023-05-19T09:04:12;102621.94;;;16.69;59.52
67840;BME280;54636;51.684;5.142;2023-05-19T09:06:37;102622.44;;;16.88;58.40
67840;BME280;54636;51.684;5.142;2023-05-19T09:09:06;102618.44;;;16.89;57.40
67840;BME280;54636;51.684;5.142;2023-05-19T09:11:33;102618.69;;;17.11;58.99
67840;BME280;54636;51.684;5.142;2023-05-19T09:14:00;102620.91;;;17.33;56.79
67840;BME280;54636;51.684;5.142;2023-05-19T09:16:25;102597.97;;;17.36;55.78
67840;BME280;54636;51.684;5.142;2023-05-19T09:18:55;102608.88;;;17.51;56.04
67840;BME280;54636;51.684;5.142;2023-05-19T09:21:28;102619.03;;;17.45;52.51
67840;BME280;54636;51.684;5.142;2023-05-19T09:23:55;102604.50;;;17.39;56.30
67840;BME280;54636;51.684;5.142;2023-05-19T09:26:21;102608.09;;;17.25;56.58
67840;BME280;54636;51.684;5.142;2023-05-19T09:28:47;102612.09;;;17.24;55.43
67840;BME280;54636;51.684;5.142;2023-05-19T09:31:13;102614.63;;;17.27;52.34
67840;BME280;54636;51.684;5.142;2023-05-19T09:33:40;102618.53;;;17.21;52.98
67840;BME280;54636;51.684;5.142;2023-05-19T09:36:07;102609.75;;;17.17;51.40
67840;BME280;54636;51.684;5.142;2023-05-19T09:38:34;102603.09;;;17.23;53.03
67840;BME280;54636;51.684;5.142;2023-05-19T09:41:00;102599.00;;;17.39;51.88
67840;BME280;54636;51.684;5.142;2023-05-19T09:43:27;102612.09;;;17.24;50.64
67840;BME280;54636;51.684;5.142;2023-05-19T09:46:06;102606.34;;;17.01;50.17
67840;BME280;54636;51.684;5.142;2023-05-19T09:48:32;102605.56;;;16.75;48.61
67840;BME280;54636;51.684;5.142;2023-05-19T09:51:02;102608.84;;;16.79;51.12
67840;BME280;54636;51.684;5.142;2023-05-19T09:53:29;102609.56;;;17.00;51.82
67840;BME280;54636;51.684;5.142;2023-05-19T09:56:00;102603.03;;;17.18;52.17
67840;BME280;54636;51.684;5.142;2023-05-19T09:58:30;102597.53;;;17.18;50.26
67840;BME280;54636;51.684;5.142;2023-05-19T10:00:56;102591.09;;;17.21;50.01
67840;BME280;54636;51.684;5.142;2023-05-19T10:03:22;102593.06;;;17.46;51.77
67840;BME280;54636;51.684;5.142;2023-05-19T10:05:49;102594.03;;;17.69;49.99
67840;BME280;54636;51.684;5.142;2023-05-19T10:08:17;102595.06;;;18.03;46.03
67840;BME280;54636;51.684;5.142;2023-05-19T10:10:44;102594.41;;;18.25;48.47
67840;BME280;54636;51.684;5.142;2023-05-19T10:13:11;102599.75;;;18.39;45.00
67840;BME280;54636;51.684;5.142;2023-05-19T10:15:37;102592.16;;;18.23;42.99
67840;BME280;54636;51.684;5.142;2023-05-19T10:18:05;102603.38;;;18.14;44.76
67840;BME280;54636;51.684;5.142;2023-05-19T10:20:31;102580.25;;;17.95;43.98
67840;BME280;54636;51.684;5.142;2023-05-19T10:22:59;102590.38;;;18.15;44.65
67840;BME280;54636;51.684;5.142;2023-05-19T10:25:24;102598.69;;;18.26;44.08
67840;BME280;54636;51.684;5.142;2023-05-19T10:30:41;102576.41;;;18.24;42.73
67840;BME280;54636;51.684;5.142;2023-05-19T10:33:10;102585.13;;;18.11;42.03
67840;BME280;54636;51.684;5.142;2023-05-19T10:44:19;102570.75;;;17.96;45.37
67840;BME280;54636;51.684;5.142;2023-05-19T10:46:47;102575.94;;;18.31;46.33
67840;BME280;54636;51.684;5.142;2023-05-19T10:49:22;102581.47;;;18.31;43.22
67840;BME280;54636;51.684;5.142;2023-05-19T10:51:48;102573.63;;;18.13;43.32
67840;BME280;54636;51.684;5.142;2023-05-19T10:54:14;102573.81;;;18.03;43.54
67840;BME280;54636;51.684;5.142;2023-05-19T10:56:45;102570.28;;;17.97;44.57
67840;BME280;54636;51.684;5.142;2023-05-19T10:59:41;102570.59;;;18.10;46.05
67840;BME280;54636;51.684;5.142;2023-05-19T11:02:09;102580.47;;;18.34;45.27
67840;BME280;54636;51.684;5.142;2023-05-19T11:05:06;102563.97;;;18.34;44.26
67840;BME280;54636;51.684;5.142;2023-05-19T11:07:33;102542.34;;;18.10;42.52
67840;BME280;54636;51.684;5.142;2023-05-19T11:10:04;102569.25;;;18.43;43.10
67840;BME280;54636;51.684;5.142;2023-05-19T11:12:47;102560.25;;;18.42;42.54
67840;BME280;54636;51.684;5.142;2023-05-19T11:15:14;102559.53;;;18.48;43.39
67840;BME280;54636;51.684;5.142;2023-05-19T11:17:45;102564.06;;;18.56;44.39
67840;BME280;54636;51.684;5.142;2023-05-19T11:20:26;102564.84;;;18.57;43.43
67840;BME280;54636;51.684;5.142;2023-05-19T11:23:08;102558.53;;;18.45;42.53
67840;BME280;54636;51.684;5.142;2023-05-19T11:25:51;102563.59;;;18.58;42.80
67840;BME280;54636;51.684;5.142;2023-05-19T11:28:19;102556.81;;;18.53;42.41
67840;BME280;54636;51.684;5.142;2023-05-19T11:30:50;102559.13;;;18.60;42.14
67840;BME280;54636;51.684;5.142;2023-05-19T11:33:18;102544.16;;;18.19;41.01
67840;BME280;54636;51.684;5.142;2023-05-19T11:35:49;102551.41;;;18.22;42.45
67840;BME280;54636;51.684;5.142;2023-05-19T11:38:19;102547.75;;;18.41;42.22
67840;BME280;54636;51.684;5.142;2023-05-19T11:40:44;102545.38;;;18.66;42.48
67840;BME280;54636;51.684;5.142;2023-05-19T11:43:14;102540.06;;;18.57;41.64
67840;BME280;54636;51.684;5.142;2023-05-19T11:45:40;102542.31;;;18.58;42.78
67840;BME280;54636;51.684;5.142;2023-05-19T11:48:13;102549.88;;;18.63;41.45
67840;BME280;54636;51.684;5.142;2023-05-19T11:50:40;102550.06;;;18.54;42.21
67840;BME280;54636;51.684;5.142;2023-05-19T11:53:06;102540.25;;;18.42;40.98
67840;BME280;54636;51.684;5.142;2023-05-19T11:55:32;102544.28;;;18.52;40.80
67840;BME280;54636;51.684;5.142;2023-05-19T11:58:01;102543.81;;;18.54;40.13
67840;BME280;54636;51.684;5.142;2023-05-19T12:00:29;102542.53;;;18.49;39.76
67840;BME280;54636;51.684;5.142;2023-05-19T12:02:55;102546.56;;;18.59;39.77
67840;BME280;54636;51.684;5.142;2023-05-19T12:05:22;102538.13;;;18.68;39.20
67840;BME280;54636;51.684;5.142;2023-05-19T12:07:49;102523.91;;;18.75;40.67
67840;BME280;54636;51.684;5.142;2023-05-19T12:10:35;102529.44;;;19.09;40.83
67840;BME280;54636;51.684;5.142;2023-05-19T12:13:01;102536.97;;;19.08;37.29
67840;BME280;54636;51.684;5.142;2023-05-19T12:15:27;102530.69;;;18.97;36.38
67840;BME280;54636;51.684;5.142;2023-05-19T12:17:57;102528.94;;;18.99;36.50
67840;BME280;54636;51.684;5.142;2023-05-19T12:20:24;102535.19;;;18.94;36.21
67840;BME280;54636;51.684;5.142;2023-05-19T12:22:50;102516.38;;;18.87;36.24
67840;BME280;54636;51.684;5.142;2023-05-19T12:25:16;102533.69;;;18.93;37.45
67840;BME280;54636;51.684;5.142;2023-05-19T12:27:43;102523.94;;;19.03;36.97
67840;BME280;54636;51.684;5.142;2023-05-19T12:30:09;102535.22;;;19.17;37.02
67840;BME280;54636;51.684;5.142;2023-05-19T12:32:35;102523.72;;;19.29;38.97
67840;BME280;54636;51.684;5.142;2023-05-19T12:35:04;102532.00;;;19.40;37.21
67840;BME280;54636;51.684;5.142;2023-05-19T12:37:30;102521.97;;;19.49;36.52
67840;BME280;54636;51.684;5.142;2023-05-19T12:39:57;102519.22;;;19.54;37.45
67840;BME280;54636;51.684;5.142;2023-05-19T12:42:26;102512.94;;;19.54;36.62
67840;BME280;54636;51.684;5.142;2023-05-19T12:44:56;102508.41;;;19.51;37.17
67840;BME280;54636;51.684;5.142;2023-05-19T12:47:21;102516.47;;;19.49;37.67
67840;BME280;54636;51.684;5.142;2023-05-19T12:52:20;102503.38;;;19.94;37.00
67840;BME280;54636;51.684;5.142;2023-05-19T12:55:09;102492.72;;;20.20;35.93
67840;BME280;54636;51.684;5.142;2023-05-19T12:57:39;102491.19;;;20.30;36.80
67840;BME280;54636;51.684;5.142;2023-05-19T13:00:07;102509.94;;;20.49;35.64
67840;BME280;54636;51.684;5.142;2023-05-19T13:02:54;102501.94;;;20.45;36.18
67840;BME280;54636;51.684;5.142;2023-05-19T13:05:20;102489.66;;;20.35;37.25
67840;BME280;54636;51.684;5.142;2023-05-19T13:10:21;102486.09;;;20.51;36.16
67840;BME280;54636;51.684;5.142;2023-05-19T13:12:48;102492.44;;;20.41;36.31
67840;BME280;54636;51.684;5.142;2023-05-19T13:15:14;102481.63;;;20.37;36.58
67840;BME280;54636;51.684;5.142;2023-05-19T13:17:39;102496.41;;;20.45;36.33
67840;BME280;54636;51.684;5.142;2023-05-19T13:20:05;102498.19;;;20.31;36.07
67840;BME280;54636;51.684;5.142;2023-05-19T13:22:31;102492.03;;;20.09;36.86
67840;BME280;54636;51.684;5.142;2023-05-19T13:24:56;102487.72;;;20.19;37.88
67840;BME280;54636;51.684;5.142;2023-05-19T13:27:26;102488.41;;;20.36;37.15
67840;BME280;54636;51.684;5.142;2023-05-19T13:29:51;102476.09;;;20.37;36.83
67840;BME280;54636;51.684;5.142;2023-05-19T13:32:17;102462.66;;;20.17;37.35